Aalst, Belgium
Current Conditions -  °F | °C
As of 4:20 AM on Tuesday 21 Oct 2014 (Local Time) from EBBR Reporting Station
Scattered Clouds Scattered Clouds  
Wind Chill: 54°   Ceiling: Unl
Heat Index: 54°   Visibility: 6mi
Dew Point: 50°   Wind: 12mph
Humidity: 88%   Direction: 230°SW
Pressure: 29.88"   Gusts: NA
Location:  50.94°N, 4.04°E
Report Text: EBBR 210220Z 23010KT 9999 SCT013 12/10 Q1012 NOSIG
Loading
Personal Weather Stations






























Interactive Weather Map
Tropical Storm Tracking
New forecast layout! Learn more

10-Day Weather Forecast

Advertisements
Track Severe Weather on mobile